sensor_id;sensor_type;location;lat;lon;timestamp;temperature;humidity
6740;DHT22;3407;49.882;10.920;2024-03-02T00:00:20;5.70;1.00
6740;DHT22;3407;49.882;10.920;2024-03-02T00:05:21;5.70;1.00
6740;DHT22;3407;49.882;10.920;2024-03-02T00:10:20;5.70;1.00
6740;DHT22;3407;49.882;10.920;2024-03-02T00:15:41;5.70;1.00
6740;DHT22;3407;49.882;10.920;2024-03-02T00:20:41;5.70;1.00
6740;DHT22;3407;49.882;10.920;2024-03-02T00:25:38;5.70;1.00
6740;DHT22;3407;49.882;10.920;2024-03-02T00:30:59;5.80;1.00
6740;DHT22;3407;49.882;10.920;2024-03-02T00:35:55;5.90;1.00
6740;DHT22;3407;49.882;10.920;2024-03-02T00:40:51;5.90;1.00
6740;DHT22;3407;49.882;10.920;2024-03-02T00:45:47;5.90;1.00
6740;DHT22;3407;49.882;10.920;2024-03-02T00:50:43;6.00;1.00
6740;DHT22;3407;49.882;10.920;2024-03-02T00:55:39;6.00;1.00
6740;DHT22;3407;49.882;10.920;2024-03-02T01:00:39;6.00;1.00
6740;DHT22;3407;49.882;10.920;2024-03-02T01:05:35;6.10;1.00
6740;DHT22;3407;49.882;10.920;2024-03-02T01:10:30;6.10;1.00
6740;DHT22;3407;49.882;10.920;2024-03-02T01:15:26;6.10;1.00
6740;DHT22;3407;49.882;10.920;2024-03-02T01:20:22;6.10;1.00
6740;DHT22;3407;49.882;10.920;2024-03-02T01:25:18;6.10;1.00
6740;DHT22;3407;49.882;10.920;2024-03-02T01:30:13;6.00;1.00
6740;DHT22;3407;49.882;10.920;2024-03-02T01:35:09;6.00;1.00
6740;DHT22;3407;49.882;10.920;2024-03-02T01:40:05;6.00;1.00
6740;DHT22;3407;49.882;10.920;2024-03-02T01:45:05;6.10;1.00
6740;DHT22;3407;49.882;10.920;2024-03-02T01:50:01;6.20;1.00
6740;DHT22;3407;49.882;10.920;2024-03-02T01:54:57;6.20;1.00
6740;DHT22;3407;49.882;10.920;2024-03-02T01:59:52;6.10;1.00
6740;DHT22;3407;49.882;10.920;2024-03-02T02:04:48;6.10;1.00
6740;DHT22;3407;49.882;10.920;2024-03-02T02:09:43;6.20;1.00
6740;DHT22;3407;49.882;10.920;2024-03-02T02:14:39;6.40;1.00
6740;DHT22;3407;49.882;10.920;2024-03-02T02:19:42;6.40;1.00
6740;DHT22;3407;49.882;10.920;2024-03-02T02:24:41;6.50;1.00
6740;DHT22;3407;49.882;10.920;2024-03-02T02:29:37;6.50;1.00
6740;DHT22;3407;49.882;10.920;2024-03-02T02:34:33;6.60;1.00
6740;DHT22;3407;49.882;10.920;2024-03-02T02:39:29;6.60;1.00
6740;DHT22;3407;49.882;10.920;2024-03-02T02:44:24;6.60;1.00
6740;DHT22;3407;49.882;10.920;2024-03-02T02:49:20;6.60;1.00
6740;DHT22;3407;49.882;10.920;2024-03-02T02:54:16;6.70;1.00
6740;DHT22;3407;49.882;10.920;2024-03-02T02:59:12;6.70;1.00
6740;DHT22;3407;49.882;10.920;2024-03-02T03:04:08;6.70;1.00
6740;DHT22;3407;49.882;10.920;2024-03-02T03:09:04;6.80;1.00
6740;DHT22;3407;49.882;10.920;2024-03-02T03:13:59;6.90;1.00
6740;DHT22;3407;49.882;10.920;2024-03-02T03:18:56;6.90;1.00
6740;DHT22;3407;49.882;10.920;2024-03-02T03:23:52;7.00;1.00
6740;DHT22;3407;49.882;10.920;2024-03-02T03:28:47;7.00;1.00
6740;DHT22;3407;49.882;10.920;2024-03-02T03:33:43;6.90;1.00
6740;DHT22;3407;49.882;10.920;2024-03-02T03:38:38;6.90;1.00
6740;DHT22;3407;49.882;10.920;2024-03-02T03:43:34;6.90;1.00
6740;DHT22;3407;49.882;10.920;2024-03-02T03:48:30;7.00;1.00
6740;DHT22;3407;49.882;10.920;2024-03-02T03:53:26;7.00;1.00
6740;DHT22;3407;49.882;10.920;2024-03-02T03:58:21;7.10;1.00
6740;DHT22;3407;49.882;10.920;2024-03-02T04:03:17;7.10;1.00
6740;DHT22;3407;49.882;10.920;2024-03-02T04:08:13;7.10;1.00
6740;DHT22;3407;49.882;10.920;2024-03-02T04:13:08;7.00;1.00
6740;DHT22;3407;49.882;10.920;2024-03-02T04:18:05;7.00;1.00
6740;DHT22;3407;49.882;10.920;2024-03-02T04:23:00;6.90;1.00
6740;DHT22;3407;49.882;10.920;2024-03-02T04:27:56;6.80;1.00
6740;DHT22;3407;49.882;10.920;2024-03-02T04:32:51;6.70;1.00
6740;DHT22;3407;49.882;10.920;2024-03-02T04:37:47;6.70;1.00
6740;DHT22;3407;49.882;10.920;2024-03-02T04:42:42;6.60;1.00
6740;DHT22;3407;49.882;10.920;2024-03-02T04:47:38;6.60;1.00
6740;DHT22;3407;49.882;10.920;2024-03-02T04:52:33;6.50;1.00
6740;DHT22;3407;49.882;10.920;2024-03-02T04:57:29;6.50;7.50
6740;DHT22;3407;49.882;10.920;2024-03-02T05:02:24;6.50;7.90
6740;DHT22;3407;49.882;10.920;2024-03-02T05:07:20;6.50;10.10
6740;DHT22;3407;49.882;10.920;2024-03-02T05:12:16;6.50;7.70
6740;DHT22;3407;49.882;10.920;2024-03-02T05:17:30;6.60;10.60
6740;DHT22;3407;49.882;10.920;2024-03-02T05:22:25;6.60;8.10
6740;DHT22;3407;49.882;10.920;2024-03-02T05:27:21;6.60;4.80
6740;DHT22;3407;49.882;10.920;2024-03-02T05:32:16;6.60;1.00
6740;DHT22;3407;49.882;10.920;2024-03-02T05:37:12;6.50;7.80
6740;DHT22;3407;49.882;10.920;2024-03-02T05:42:07;6.40;7.30
6740;DHT22;3407;49.882;10.920;2024-03-02T05:47:03;6.10;7.80
6740;DHT22;3407;49.882;10.920;2024-03-02T05:51:59;6.40;9.70
6740;DHT22;3407;49.882;10.920;2024-03-02T05:56:54;6.40;7.90
6740;DHT22;3407;49.882;10.920;2024-03-02T06:01:50;6.40;7.90
6740;DHT22;3407;49.882;10.920;2024-03-02T06:06:48;6.30;13.80
6740;DHT22;3407;49.882;10.920;2024-03-02T06:11:44;6.40;17.80
6740;DHT22;3407;49.882;10.920;2024-03-02T06:16:40;6.40;15.80
6740;DHT22;3407;49.882;10.920;2024-03-02T06:21:35;6.40;8.00
6740;DHT22;3407;49.882;10.920;2024-03-02T06:26:31;6.40;5.40
6740;DHT22;3407;49.882;10.920;2024-03-02T06:31:27;6.40;5.90
6740;DHT22;3407;49.882;10.920;2024-03-02T06:36:22;6.40;1.40
6740;DHT22;3407;49.882;10.920;2024-03-02T06:41:18;6.40;1.00
6740;DHT22;3407;49.882;10.920;2024-03-02T06:46:14;6.50;1.00
6740;DHT22;3407;49.882;10.920;2024-03-02T06:51:10;6.50;1.00
6740;DHT22;3407;49.882;10.920;2024-03-02T06:56:07;6.70;1.00
6740;DHT22;3407;49.882;10.920;2024-03-02T07:01:03;6.90;1.00
6740;DHT22;3407;49.882;10.920;2024-03-02T07:05:58;7.10;1.00
6740;DHT22;3407;49.882;10.920;2024-03-02T07:10:54;7.30;1.00
6740;DHT22;3407;49.882;10.920;2024-03-02T07:15:49;7.60;1.00
6740;DHT22;3407;49.882;10.920;2024-03-02T07:21:03;8.00;1.00
6740;DHT22;3407;49.882;10.920;2024-03-02T07:25:59;8.50;1.00
6740;DHT22;3407;49.882;10.920;2024-03-02T07:31:04;9.20;1.00
6740;DHT22;3407;49.882;10.920;2024-03-02T07:36:00;9.50;1.00
6740;DHT22;3407;49.882;10.920;2024-03-02T07:40:57;10.60;99.90
6740;DHT22;3407;49.882;10.920;2024-03-02T07:45:52;10.80;1.00
6740;DHT22;3407;49.882;10.920;2024-03-02T07:50:48;10.50;1.00
6740;DHT22;3407;49.882;10.920;2024-03-02T07:55:44;10.20;1.00
6740;DHT22;3407;49.882;10.920;2024-03-02T08:00:39;10.40;99.90
6740;DHT22;3407;49.882;10.920;2024-03-02T08:05:35;10.60;1.00
6740;DHT22;3407;49.882;10.920;2024-03-02T08:10:31;11.60;99.90
6740;DHT22;3407;49.882;10.920;2024-03-02T08:15:26;13.60;1.60
6740;DHT22;3407;49.882;10.920;2024-03-02T08:20:22;15.70;99.90
6740;DHT22;3407;49.882;10.920;2024-03-02T08:25:17;15.60;99.90
6740;DHT22;3407;49.882;10.920;2024-03-02T08:30:13;14.90;99.90
6740;DHT22;3407;49.882;10.920;2024-03-02T08:35:09;14.70;99.90
6740;DHT22;3407;49.882;10.920;2024-03-02T08:40:06;14.10;99.90
6740;DHT22;3407;49.882;10.920;2024-03-02T08:45:02;14.00;99.90
6740;DHT22;3407;49.882;10.920;2024-03-02T08:49:59;13.90;99.90
6740;DHT22;3407;49.882;10.920;2024-03-02T08:54:55;13.60;99.90
6740;DHT22;3407;49.882;10.920;2024-03-02T08:59:50;14.00;99.90
6740;DHT22;3407;49.882;10.920;2024-03-02T09:04:46;14.60;99.90
6740;DHT22;3407;49.882;10.920;2024-03-02T09:09:41;13.50;99.90
6740;DHT22;3407;49.882;10.920;2024-03-02T09:14:37;13.60;99.90
6740;DHT22;3407;49.882;10.920;2024-03-02T09:19:33;13.40;99.90
6740;DHT22;3407;49.882;10.920;2024-03-02T09:24:28;13.50;99.90
6740;DHT22;3407;49.882;10.920;2024-03-02T09:29:24;13.20;99.90
6740;DHT22;3407;49.882;10.920;2024-03-02T09:34:20;13.00;99.90
6740;DHT22;3407;49.882;10.920;2024-03-02T09:39:15;13.10;99.90
6740;DHT22;3407;49.882;10.920;2024-03-02T09:44:11;13.00;99.90
6740;DHT22;3407;49.882;10.920;2024-03-02T09:49:07;12.70;99.90
6740;DHT22;3407;49.882;10.920;2024-03-02T09:54:03;12.60;99.90
6740;DHT22;3407;49.882;10.920;2024-03-02T09:58:59;12.60;99.90
6740;DHT22;3407;49.882;10.920;2024-03-02T10:03:56;12.60;99.90
6740;DHT22;3407;49.882;10.920;2024-03-02T10:08:53;12.30;1.00
6740;DHT22;3407;49.882;10.920;2024-03-02T10:13:50;12.60;1.00
6740;DHT22;3407;49.882;10.920;2024-03-02T10:18:45;12.80;99.90
6740;DHT22;3407;49.882;10.920;2024-03-02T10:23:41;12.70;99.90
6740;DHT22;3407;49.882;10.920;2024-03-02T10:28:37;12.80;99.90
6740;DHT22;3407;49.882;10.920;2024-03-02T10:33:41;12.80;99.90
6740;DHT22;3407;49.882;10.920;2024-03-02T10:38:37;12.80;99.90
6740;DHT22;3407;49.882;10.920;2024-03-02T10:43:32;13.00;99.90
6740;DHT22;3407;49.882;10.920;2024-03-02T10:48:29;13.10;99.90
6740;DHT22;3407;49.882;10.920;2024-03-02T10:53:26;13.30;99.90
6740;DHT22;3407;49.882;10.920;2024-03-02T10:58:22;13.70;99.90
6740;DHT22;3407;49.882;10.920;2024-03-02T11:03:18;13.70;99.90
6740;DHT22;3407;49.882;10.920;2024-03-02T11:08:18;13.70;99.90
6740;DHT22;3407;49.882;10.920;2024-03-02T11:13:14;13.60;99.90
6740;DHT22;3407;49.882;10.920;2024-03-02T11:18:10;13.70;99.90
6740;DHT22;3407;49.882;10.920;2024-03-02T11:23:08;14.30;99.90
6740;DHT22;3407;49.882;10.920;2024-03-02T11:28:07;15.00;99.90
6740;DHT22;3407;49.882;10.920;2024-03-02T11:33:09;15.70;99.90
6740;DHT22;3407;49.882;10.920;2024-03-02T11:38:04;16.10;99.90
6740;DHT22;3407;49.882;10.920;2024-03-02T11:43:01;15.90;99.90
6740;DHT22;3407;49.882;10.920;2024-03-02T11:47:57;16.20;99.90
6740;DHT22;3407;49.882;10.920;2024-03-02T11:52:53;16.40;99.90
6740;DHT22;3407;49.882;10.920;2024-03-02T11:57:49;16.30;99.90
6740;DHT22;3407;49.882;10.920;2024-03-02T12:03:03;16.00;99.90
6740;DHT22;3407;49.882;10.920;2024-03-02T12:08:00;15.90;99.90
6740;DHT22;3407;49.882;10.920;2024-03-02T12:13:01;15.70;99.90
6740;DHT22;3407;49.882;10.920;2024-03-02T12:17:58;15.60;99.90
6740;DHT22;3407;49.882;10.920;2024-03-02T12:22:54;15.50;99.90
6740;DHT22;3407;49.882;10.920;2024-03-02T12:27:53;16.30;99.90
6740;DHT22;3407;49.882;10.920;2024-03-02T12:32:50;16.90;99.90
6740;DHT22;3407;49.882;10.920;2024-03-02T12:37:47;17.90;99.90
6740;DHT22;3407;49.882;10.920;2024-03-02T12:42:43;18.40;99.90
6740;DHT22;3407;49.882;10.920;2024-03-02T12:47:40;18.70;99.90
6740;DHT22;3407;49.882;10.920;2024-03-02T12:52:36;18.70;99.90
6740;DHT22;3407;49.882;10.920;2024-03-02T12:57:32;18.30;99.90
6740;DHT22;3407;49.882;10.920;2024-03-02T13:02:31;17.50;99.90
6740;DHT22;3407;49.882;10.920;2024-03-02T13:07:26;17.00;99.90
6740;DHT22;3407;49.882;10.920;2024-03-02T13:12:24;17.80;99.90
6740;DHT22;3407;49.882;10.920;2024-03-02T13:17:20;18.00;99.90
6740;DHT22;3407;49.882;10.920;2024-03-02T13:22:16;18.00;99.90
6740;DHT22;3407;49.882;10.920;2024-03-02T13:27:11;18.00;99.90
6740;DHT22;3407;49.882;10.920;2024-03-02T13:32:07;18.10;99.90
6740;DHT22;3407;49.882;10.920;2024-03-02T13:37:03;18.10;99.90
6740;DHT22;3407;49.882;10.920;2024-03-02T13:42:00;17.90;99.90
6740;DHT22;3407;49.882;10.920;2024-03-02T13:47:01;18.10;99.90
6740;DHT22;3407;49.882;10.920;2024-03-02T13:51:56;18.00;99.90
6740;DHT22;3407;49.882;10.920;2024-03-02T13:56:52;17.30;99.90
6740;DHT22;3407;49.882;10.920;2024-03-02T14:01:47;16.50;99.90
6740;DHT22;3407;49.882;10.920;2024-03-02T14:06:43;16.10;99.90
6740;DHT22;3407;49.882;10.920;2024-03-02T14:11:39;16.20;99.90
6740;DHT22;3407;49.882;10.920;2024-03-02T14:16:34;16.20;99.90
6740;DHT22;3407;49.882;10.920;2024-03-02T14:21:31;16.20;99.90
6740;DHT22;3407;49.882;10.920;2024-03-02T14:26:26;16.60;99.90
6740;DHT22;3407;49.882;10.920;2024-03-02T14:31:23;17.60;99.90
6740;DHT22;3407;49.882;10.920;2024-03-02T14:36:19;17.80;99.90
6740;DHT22;3407;49.882;10.920;2024-03-02T14:41:14;18.30;99.90
6740;DHT22;3407;49.882;10.920;2024-03-02T14:46:10;19.30;99.90
6740;DHT22;3407;49.882;10.920;2024-03-02T14:51:06;19.50;99.90
6740;DHT22;3407;49.882;10.920;2024-03-02T14:56:02;19.50;99.90
6740;DHT22;3407;49.882;10.920;2024-03-02T15:00:57;19.60;99.90
6740;DHT22;3407;49.882;10.920;2024-03-02T15:05:53;19.30;99.90
6740;DHT22;3407;49.882;10.920;2024-03-02T15:10:49;19.10;99.90
6740;DHT22;3407;49.882;10.920;2024-03-02T15:15:44;19.60;99.90
6740;DHT22;3407;49.882;10.920;2024-03-02T15:20:40;19.60;99.90
6740;DHT22;3407;49.882;10.920;2024-03-02T15:25:36;19.20;99.90
6740;DHT22;3407;49.882;10.920;2024-03-02T15:30:31;18.60;99.90
6740;DHT22;3407;49.882;10.920;2024-03-02T15:35:28;17.00;99.90
6740;DHT22;3407;49.882;10.920;2024-03-02T15:40:23;15.80;99.90
6740;DHT22;3407;49.882;10.920;2024-03-02T15:45:19;14.70;99.90
6740;DHT22;3407;49.882;10.920;2024-03-02T15:50:14;14.00;99.90
6740;DHT22;3407;49.882;10.920;2024-03-02T15:55:10;13.20;99.90
6740;DHT22;3407;49.882;10.920;2024-03-02T16:00:06;13.00;99.90
6740;DHT22;3407;49.882;10.920;2024-03-02T16:05:02;12.80;99.90
6740;DHT22;3407;49.882;10.920;2024-03-02T16:09:57;12.60;99.90
6740;DHT22;3407;49.882;10.920;2024-03-02T16:14:53;12.50;99.90
6740;DHT22;3407;49.882;10.920;2024-03-02T16:19:48;12.10;99.90
6740;DHT22;3407;49.882;10.920;2024-03-02T16:24:44;11.80;99.90
6740;DHT22;3407;49.882;10.920;2024-03-02T16:29:39;11.50;1.00
6740;DHT22;3407;49.882;10.920;2024-03-02T16:34:35;11.30;1.00
6740;DHT22;3407;49.882;10.920;2024-03-02T16:39:31;11.10;1.00
6740;DHT22;3407;49.882;10.920;2024-03-02T16:44:26;10.90;1.00
6740;DHT22;3407;49.882;10.920;2024-03-02T16:49:22;10.60;29.10
6740;DHT22;3407;49.882;10.920;2024-03-02T16:54:17;10.40;99.90
6740;DHT22;3407;49.882;10.920;2024-03-02T16:59:13;10.20;99.90
6740;DHT22;3407;49.882;10.920;2024-03-02T17:04:08;10.20;1.00
6740;DHT22;3407;49.882;10.920;2024-03-02T17:09:05;10.00;1.00
6740;DHT22;3407;49.882;10.920;2024-03-02T17:14:00;9.90;1.00
6740;DHT22;3407;49.882;10.920;2024-03-02T17:18:58;9.90;20.10
6740;DHT22;3407;49.882;10.920;2024-03-02T17:23:53;9.80;99.90
6740;DHT22;3407;49.882;10.920;2024-03-02T17:28:49;9.80;99.90
6740;DHT22;3407;49.882;10.920;2024-03-02T17:33:44;9.60;99.90
6740;DHT22;3407;49.882;10.920;2024-03-02T17:38:41;9.50;1.00
6740;DHT22;3407;49.882;10.920;2024-03-02T17:43:37;9.30;1.00
6740;DHT22;3407;49.882;10.920;2024-03-02T17:48:32;9.10;99.90
6740;DHT22;3407;49.882;10.920;2024-03-02T17:53:28;8.90;1.00
6740;DHT22;3407;49.882;10.920;2024-03-02T17:58:23;8.80;99.90
6740;DHT22;3407;49.882;10.920;2024-03-02T18:03:19;8.70;1.00
6740;DHT22;3407;49.882;10.920;2024-03-02T18:08:14;8.50;99.90
6740;DHT22;3407;49.882;10.920;2024-03-02T18:13:11;8.40;1.00
6740;DHT22;3407;49.882;10.920;2024-03-02T18:18:06;8.30;1.00
6740;DHT22;3407;49.882;10.920;2024-03-02T18:23:02;8.20;1.00
6740;DHT22;3407;49.882;10.920;2024-03-02T18:27:58;8.10;1.00
6740;DHT22;3407;49.882;10.920;2024-03-02T18:32:53;8.10;99.90
6740;DHT22;3407;49.882;10.920;2024-03-02T18:37:49;8.00;1.00
6740;DHT22;3407;49.882;10.920;2024-03-02T18:42:44;7.80;99.90
6740;DHT22;3407;49.882;10.920;2024-03-02T18:47:40;7.70;99.90
6740;DHT22;3407;49.882;10.920;2024-03-02T18:52:36;7.70;99.90
6740;DHT22;3407;49.882;10.920;2024-03-02T18:57:32;7.60;1.00
6740;DHT22;3407;49.882;10.920;2024-03-02T19:02:29;7.50;1.00
6740;DHT22;3407;49.882;10.920;2024-03-02T19:07:24;7.40;99.90
6740;DHT22;3407;49.882;10.920;2024-03-02T19:12:20;7.20;1.00
6740;DHT22;3407;49.882;10.920;2024-03-02T19:17:16;7.10;99.90
6740;DHT22;3407;49.882;10.920;2024-03-02T19:22:12;7.10;65.20
6740;DHT22;3407;49.882;10.920;2024-03-02T19:27:07;7.30;1.00
6740;DHT22;3407;49.882;10.920;2024-03-02T19:32:03;7.60;1.00
6740;DHT22;3407;49.882;10.920;2024-03-02T19:36:58;7.70;99.90
6740;DHT22;3407;49.882;10.920;2024-03-02T19:41:55;7.80;99.90
6740;DHT22;3407;49.882;10.920;2024-03-02T19:46:50;7.90;99.90
6740;DHT22;3407;49.882;10.920;2024-03-02T19:51:46;7.90;99.90
6740;DHT22;3407;49.882;10.920;2024-03-02T19:56:42;8.00;99.90
6740;DHT22;3407;49.882;10.920;2024-03-02T20:01:39;8.00;4.60
6740;DHT22;3407;49.882;10.920;2024-03-02T20:06:37;7.90;1.00
6740;DHT22;3407;49.882;10.920;2024-03-02T20:11:33;7.90;99.90
6740;DHT22;3407;49.882;10.920;2024-03-02T20:16:29;8.00;43.10
6740;DHT22;3407;49.882;10.920;2024-03-02T20:21:24;8.10;1.00
6740;DHT22;3407;49.882;10.920;2024-03-02T20:26:20;8.10;1.00
6740;DHT22;3407;49.882;10.920;2024-03-02T20:31:15;8.20;1.00
6740;DHT22;3407;49.882;10.920;2024-03-02T20:36:15;8.20;99.90
6740;DHT22;3407;49.882;10.920;2024-03-02T20:41:18;8.20;99.90
6740;DHT22;3407;49.882;10.920;2024-03-02T20:46:13;8.20;99.90
6740;DHT22;3407;49.882;10.920;2024-03-02T20:51:09;8.10;99.90
6740;DHT22;3407;49.882;10.920;2024-03-02T20:56:05;8.10;99.90
6740;DHT22;3407;49.882;10.920;2024-03-02T21:01:01;7.90;1.00
6740;DHT22;3407;49.882;10.920;2024-03-02T21:05:56;8.00;1.00
6740;DHT22;3407;49.882;10.920;2024-03-02T21:10:52;8.00;1.00
6740;DHT22;3407;49.882;10.920;2024-03-02T21:15:48;8.00;1.00
6740;DHT22;3407;49.882;10.920;2024-03-02T21:20:43;8.00;99.90
6740;DHT22;3407;49.882;10.920;2024-03-02T21:25:38;7.90;1.00
6740;DHT22;3407;49.882;10.920;2024-03-02T21:30:35;7.80;1.00
6740;DHT22;3407;49.882;10.920;2024-03-02T21:35:31;7.80;1.00
6740;DHT22;3407;49.882;10.920;2024-03-02T21:40:27;7.80;70.30
6740;DHT22;3407;49.882;10.920;2024-03-02T21:45:23;7.80;97.00
6740;DHT22;3407;49.882;10.920;2024-03-02T21:50:18;7.80;35.50
6740;DHT22;3407;49.882;10.920;2024-03-02T21:55:14;7.80;1.00
6740;DHT22;3407;49.882;10.920;2024-03-02T22:00:11;7.70;1.00
6740;DHT22;3407;49.882;10.920;2024-03-02T22:05:06;7.50;1.00
6740;DHT22;3407;49.882;10.920;2024-03-02T22:10:02;7.40;99.90
6740;DHT22;3407;49.882;10.920;2024-03-02T22:14:59;7.20;1.00
6740;DHT22;3407;49.882;10.920;2024-03-02T22:19:55;7.00;1.00
6740;DHT22;3407;49.882;10.920;2024-03-02T22:24:51;6.80;1.00
6740;DHT22;3407;49.882;10.920;2024-03-02T22:29:47;6.60;71.20
6740;DHT22;3407;49.882;10.920;2024-03-02T22:34:42;6.50;99.90
6740;DHT22;3407;49.882;10.920;2024-03-02T22:39:38;6.40;99.90
6740;DHT22;3407;49.882;10.920;2024-03-02T22:44:33;6.20;99.90
6740;DHT22;3407;49.882;10.920;2024-03-02T22:49:29;6.10;1.00
6740;DHT22;3407;49.882;10.920;2024-03-02T22:54:25;6.00;1.00
6740;DHT22;3407;49.882;10.920;2024-03-02T22:59:20;6.00;1.00
6740;DHT22;3407;49.882;10.920;2024-03-02T23:04:16;6.10;1.00
6740;DHT22;3407;49.882;10.920;2024-03-02T23:09:11;6.20;1.00
6740;DHT22;3407;49.882;10.920;2024-03-02T23:14:07;6.30;1.00
6740;DHT22;3407;49.882;10.920;2024-03-02T23:19:03;6.30;1.00
6740;DHT22;3407;49.882;10.920;2024-03-02T23:23:58;6.20;1.00
6740;DHT22;3407;49.882;10.920;2024-03-02T23:28:54;6.40;1.00
6740;DHT22;3407;49.882;10.920;2024-03-02T23:33:49;6.60;1.00
6740;DHT22;3407;49.882;10.920;2024-03-02T23:38:45;6.60;1.00
6740;DHT22;3407;49.882;10.920;2024-03-02T23:43:41;6.70;1.00
6740;DHT22;3407;49.882;10.920;2024-03-02T23:48:36;6.70;1.00
6740;DHT22;3407;49.882;10.920;2024-03-02T23:53:32;6.80;1.00
6740;DHT22;3407;49.882;10.920;2024-03-02T23:58:27;6.90;1.00
